Time;durP1;ratioP1;P1;durP2;ratioP2;P2;SDS_P1;SDS_P2;PMS_P1;PMS_P2;Temp;Humidity;BMP_temperature;BMP_pressure;BME280_temperature;BME280_humidity;BME280_pressure;Samples;Min_cycle;Max_cycle;Signal;HPM_P1;HPM_P2
2021/07/10 00:01:44;;;;;;;897.83;735.45;;;;;;;;;;5231182;27;20360;-85
2021/07/10 00:04:13;;;;;;;700.90;628.35;;;;;;;;;;5229526;27;20026;-85
2021/07/10 00:06:42;;;;;;;677.92;611.22;;;;;;;;;;5229943;27;20768;-85
2021/07/10 00:09:10;;;;;;;692.47;624.83;;;;;;;;;;5227319;27;20449;-84
2021/07/10 00:11:39;;;;;;;1128.40;820.60;;;;;;;;;;5230063;27;20446;-85
2021/07/10 00:14:08;;;;;;;921.30;757.72;;;;;;;;;;5228601;27;20019;-84
2021/07/10 00:16:36;;;;;;;985.45;785.15;;;;;;;;;;5229548;27;20065;-85
2021/07/10 00:19:05;;;;;;;1431.93;872.83;;;;;;;;;;5228046;27;20074;-84
2021/07/10 00:21:33;;;;;;;1003.35;768.67;;;;;;;;;;5231855;27;20106;-85
2021/07/10 00:24:02;;;;;;;1391.93;910.95;;;;;;;;;;5228745;27;20022;-84
2021/07/10 00:26:32;;;;;;;801.33;695.40;;;;;;;;;;5230068;27;20053;-84
2021/07/10 00:29:01;;;;;;;955.17;768.25;;;;;;;;;;5222227;27;20429;-85
2021/07/10 00:31:29;;;;;;;928.08;725.55;;;;;;;;;;5225898;27;20441;-85
2021/07/10 00:33:58;;;;;;;1370.43;870.70;;;;;;;;;;5228289;27;20090;-85
2021/07/10 00:36:26;;;;;;;830.83;700.78;;;;;;;;;;5227210;27;20064;-84
2021/07/10 00:38:56;;;;;;;1414.53;878.95;;;;;;;;;;5226416;27;20034;-85
2021/07/10 00:41:25;;;;;;;922.42;753.75;;;;;;;;;;5228322;27;20025;-84
2021/07/10 00:43:53;;;;;;;1323.57;874.50;;;;;;;;;;5228955;27;20033;-85
2021/07/10 00:46:22;;;;;;;1024.68;755.83;;;;;;;;;;5228822;27;20019;-85
2021/07/10 00:48:51;;;;;;;904.45;745.03;;;;;;;;;;5227208;27;20030;-84
2021/07/10 00:51:19;;;;;;;1128.22;788.37;;;;;;;;;;5228168;27;20402;-85
2021/07/10 00:53:49;;;;;;;1206.95;830.95;;;;;;;;;;5230070;27;20028;-84
2021/07/10 00:56:18;;;;;;;1040.32;780.35;;;;;;;;;;5227036;27;20437;-84
2021/07/10 00:58:47;;;;;;;870.70;722.90;;;;;;;;;;5225023;27;20015;-84
2021/07/10 01:01:16;;;;;;;1204.70;852.28;;;;;;;;;;5223781;27;20057;-83
2021/07/10 01:03:46;;;;;;;1191.97;848.17;;;;;;;;;;5221218;27;20045;-84
2021/07/10 01:06:15;;;;;;;982.17;764.97;;;;;;;;;;5220628;27;20076;-84
2021/07/10 01:08:46;;;;;;;790.17;685.00;;;;;;;;;;5223197;27;20520;-84
2021/07/10 01:11:16;;;;;;;1116.53;826.37;;;;;;;;;;5224428;27;20036;-85
2021/07/10 01:13:45;;;;;;;706.55;611.35;;;;;;;;;;5219004;27;20036;-86
2021/07/10 01:16:13;;;;;;;1029.55;743.53;;;;;;;;;;5223865;27;20259;-85
2021/07/10 01:18:42;;;;;;;937.10;757.85;;;;;;;;;;5218128;27;20022;-85
2021/07/10 01:21:10;;;;;;;702.15;627.60;;;;;;;;;;5220087;27;20052;-85
2021/07/10 01:23:39;;;;;;;1292.78;878.42;;;;;;;;;;5222028;27;20021;-85
2021/07/10 01:26:08;;;;;;;772.85;667.53;;;;;;;;;;5224161;27;20353;-84
2021/07/10 01:28:36;;;;;;;955.85;754.47;;;;;;;;;;5221058;27;20014;-85
2021/07/10 01:31:05;;;;;;;1426.47;906.42;;;;;;;;;;5218481;27;20491;-85
2021/07/10 01:33:34;;;;;;;1255.90;835.40;;;;;;;;;;5221521;27;20523;-84
2021/07/10 01:36:03;;;;;;;1265.53;844.63;;;;;;;;;;5224061;27;20438;-86
2021/07/10 01:38:31;;;;;;;972.78;780.83;;;;;;;;;;5219906;27;20409;-85
2021/07/10 01:41:00;;;;;;;1118.80;789.87;;;;;;;;;;5219584;27;20058;-85
2021/07/10 01:43:28;;;;;;;1080.60;794.67;;;;;;;;;;5223273;27;20072;-85
2021/07/10 01:45:57;;;;;;;1432.05;902.20;;;;;;;;;;5219286;27;20573;-84
2021/07/10 01:48:26;;;;;;;1329.25;868.95;;;;;;;;;;5220475;27;20026;-85
2021/07/10 01:50:54;;;;;;;766.88;682.00;;;;;;;;;;5220821;27;20038;-84
2021/07/10 01:53:22;;;;;;;588.28;528.22;;;;;;;;;;5221370;27;20300;-84
2021/07/10 01:55:51;;;;;;;1190.43;825.30;;;;;;;;;;5226559;27;20042;-85
2021/07/10 01:58:20;;;;;;;1281.72;848.90;;;;;;;;;;5222344;27;20025;-84
2021/07/10 02:00:48;;;;;;;1525.95;893.50;;;;;;;;;;5224013;27;20026;-84
2021/07/10 02:03:17;;;;;;;1025.53;796.20;;;;;;;;;;5222801;27;20076;-85
2021/07/10 02:05:46;;;;;;;1043.35;764.53;;;;;;;;;;5227226;27;20043;-85
2021/07/10 02:08:15;;;;;;;1769.32;925.50;;;;;;;;;;5222218;27;20044;-84
2021/07/10 02:10:44;;;;;;;784.70;682.95;;;;;;;;;;5226851;27;20366;-85
2021/07/10 02:13:13;;;;;;;1405.72;883.25;;;;;;;;;;5228452;27;20173;-84
2021/07/10 02:15:43;;;;;;;906.25;694.35;;;;;;;;;;5226354;27;20015;-84
2021/07/10 02:18:11;;;;;;;1399.15;845.80;;;;;;;;;;5228248;27;20060;-85
2021/07/10 02:20:40;;;;;;;749.97;647.50;;;;;;;;;;5231298;27;20026;-83
2021/07/10 02:23:09;;;;;;;701.70;627.62;;;;;;;;;;5225253;27;20018;-85
2021/07/10 02:25:37;;;;;;;1252.68;832.15;;;;;;;;;;5231824;27;20046;-84
2021/07/10 02:28:06;;;;;;;1392.07;878.10;;;;;;;;;;5227272;27;20037;-84
2021/07/10 02:30:34;;;;;;;1110.28;808.47;;;;;;;;;;5228109;27;20056;-84
2021/07/10 02:33:04;;;;;;;1061.68;785.80;;;;;;;;;;5228027;27;20026;-84
2021/07/10 02:35:34;;;;;;;1541.32;914.50;;;;;;;;;;5231486;27;20034;-84
2021/07/10 02:38:03;;;;;;;1648.32;944.50;;;;;;;;;;5224277;27;20018;-85
2021/07/10 02:40:31;;;;;;;1544.10;926.37;;;;;;;;;;5229021;27;20014;-85
2021/07/10 02:43:00;;;;;;;1286.97;862.40;;;;;;;;;;5228294;27;20022;-84
2021/07/10 02:45:29;;;;;;;1227.97;846.87;;;;;;;;;;5230914;27;20015;-84
2021/07/10 02:47:58;;;;;;;1314.07;886.70;;;;;;;;;;5222985;27;20023;-84
2021/07/10 02:50:27;;;;;;;1218.10;871.20;;;;;;;;;;5221715;27;20073;-84
2021/07/10 02:52:55;;;;;;;1706.50;954.45;;;;;;;;;;5220218;27;20060;-85
2021/07/10 02:55:25;;;;;;;1062.10;762.42;;;;;;;;;;5226312;27;20479;-84
2021/07/10 02:57:53;;;;;;;1270.30;840.58;;;;;;;;;;5226337;27;20061;-85
2021/07/10 03:00:23;;;;;;;1355.70;895.67;;;;;;;;;;5222525;27;20030;-85
2021/07/10 03:02:52;;;;;;;1228.57;836.42;;;;;;;;;;5223025;27;20061;-84
2021/07/10 03:05:21;;;;;;;1415.53;904.12;;;;;;;;;;5230666;27;20413;-85
2021/07/10 03:07:49;;;;;;;1706.38;946.80;;;;;;;;;;5228096;27;20014;-84
2021/07/10 03:10:26;;;;;;;773.90;679.95;;;;;;;;;;5220114;27;20068;-94
2021/07/10 03:13:09;;;;;;;1157.97;861.63;;;;;;;;;;5177671;27;20081;-94
2021/07/10 03:15:44;;;;;;;1225.07;820.92;;;;;;;;;;5178850;27;20010;-95
2021/07/10 09:50:52;;;;;;;1999.90;999.90;;;;;;;;;;5180515;27;20499;-83
2021/07/10 09:53:22;;;;;;;1999.90;999.90;;;;;;;;;;5181560;27;20088;-84
2021/07/10 09:56:07;;;;;;;1380.18;940.75;;;;;;;;;;5177741;27;20098;-84
2021/07/10 09:58:36;;;;;;;1999.90;999.90;;;;;;;;;;5164261;27;20035;-84
2021/07/10 10:01:23;;;;;;;1182.90;884.72;;;;;;;;;;5181007;27;20466;-84
2021/07/10 10:03:52;;;;;;;1999.90;999.90;;;;;;;;;;5160258;27;20496;-84
2021/07/10 10:06:31;;;;;;;1068.40;878.63;;;;;;;;;;5183722;27;20574;-85
2021/07/10 10:09:00;;;;;;;1999.90;999.90;;;;;;;;;;5180913;27;20362;-85
2021/07/10 10:11:47;;;;;;;1740.13;985.47;;;;;;;;;;5182100;27;20022;-85
2021/07/10 10:14:17;;;;;;;1645.60;967.78;;;;;;;;;;5179584;27;20167;-84
2021/07/10 10:16:51;;;;;;;1544.15;948.83;;;;;;;;;;5181981;27;20031;-85
2021/07/10 10:19:21;;;;;;;1594.05;923.78;;;;;;;;;;5181455;27;20043;-84
2021/07/10 10:21:52;;;;;;;1333.05;885.00;;;;;;;;;;5180286;27;20039;-85
2021/07/10 10:24:21;;;;;;;1350.03;838.90;;;;;;;;;;5179371;27;20065;-85
2021/07/10 10:26:51;;;;;;;1343.00;886.15;;;;;;;;;;5183562;27;20676;-85
2021/07/10 10:29:21;;;;;;;1712.80;956.67;;;;;;;;;;5185199;27;20018;-85
2021/07/10 10:31:51;;;;;;;1822.15;990.08;;;;;;;;;;5181424;27;20034;-85
2021/07/10 10:34:20;;;;;;;1999.90;999.90;;;;;;;;;;5182432;27;20063;-85
2021/07/10 10:36:49;;;;;;;957.03;752.55;;;;;;;;;;5189018;27;20022;-85
2021/07/10 10:39:20;;;;;;;1141.63;785.78;;;;;;;;;;5181419;27;20057;-84
2021/07/10 10:41:50;;;;;;;779.22;615.92;;;;;;;;;;5183242;27;20019;-85
2021/07/10 10:44:22;;;;;;;1081.03;733.08;;;;;;;;;;5185684;27;20276;-85
2021/07/10 10:46:52;;;;;;;1335.90;858.70;;;;;;;;;;5186814;27;20404;-85
2021/07/10 10:49:34;;;;;;;867.25;757.17;;;;;;;;;;5186519;27;20016;-85
2021/07/10 10:52:29;;;;;;;944.83;792.20;;;;;;;;;;5202421;27;20023;-85
2021/07/10 10:55:00;;;;;;;1576.80;919.45;;;;;;;;;;5173409;27;20034;-85
2021/07/10 10:57:34;;;;;;;835.88;746.17;;;;;;;;;;5204787;27;20085;-85
2021/07/10 11:00:12;;;;;;;883.17;767.75;;;;;;;;;;5203554;27;20061;-84
2021/07/10 11:02:43;;;;;;;849.85;757.25;;;;;;;;;;5207399;27;20022;-85
2021/07/10 11:05:11;;;;;;;1011.92;814.85;;;;;;;;;;5207931;27;20082;-85
2021/07/10 11:07:40;;;;;;;1120.95;845.22;;;;;;;;;;5201541;27;20027;-84
2021/07/10 11:10:14;;;;;;;852.28;675.70;;;;;;;;;;5206965;27;20044;-84
2021/07/10 11:12:49;;;;;;;1144.35;826.78;;;;;;;;;;5206316;27;20826;-85
2021/07/10 11:15:30;;;;;;;1136.07;845.17;;;;;;;;;;5205198;27;20027;-84
2021/07/10 11:17:59;;;;;;;820.20;721.00;;;;;;;;;;5205303;27;20023;-85
2021/07/10 11:20:48;;;;;;;1092.43;843.70;;;;;;;;;;5203537;27;20054;-83
2021/07/10 11:23:33;;;;;;;1674.40;958.45;;;;;;;;;;5196079;27;20065;-84
2021/07/10 11:26:06;;;;;;;958.33;794.83;;;;;;;;;;5195740;27;20406;-84
2021/07/10 11:28:54;;;;;;;993.47;757.05;;;;;;;;;;5196259;27;20077;-84
2021/07/10 11:31:31;;;;;;;988.50;769.40;;;;;;;;;;5195384;27;20184;-84
2021/07/10 11:34:10;;;;;;;1684.22;932.33;;;;;;;;;;5196797;27;20038;-84
2021/07/10 11:36:43;;;;;;;803.37;617.97;;;;;;;;;;5201947;27;20065;-84
2021/07/10 11:39:23;;;;;;;1179.45;823.90;;;;;;;;;;5201184;27;20500;-84
2021/07/10 11:41:52;;;;;;;1850.50;926.35;;;;;;;;;;5204612;27;20543;-83
2021/07/10 11:44:22;;;;;;;1868.97;992.03;;;;;;;;;;5197744;27;20103;-84
2021/07/10 11:46:57;;;;;;;1839.50;988.00;;;;;;;;;;5205920;27;20022;-84
2021/07/10 11:49:42;;;;;;;1999.90;999.90;;;;;;;;;;5207076;27;20067;-85
2021/07/10 11:52:10;;;;;;;;;;;;;;;;;;5208758;27;20073;-84
2021/07/10 11:54:41;;;;;;;1659.13;938.85;;;;;;;;;;5203544;27;19949;-84
2021/07/10 11:57:11;;;;;;;1628.32;958.90;;;;;;;;;;5205756;27;20134;-84
2021/07/10 11:59:41;;;;;;;1417.03;858.17;;;;;;;;;;5209252;27;20027;-84
2021/07/10 12:02:15;;;;;;;1999.90;999.90;;;;;;;;;;5207693;27;20031;-84
2021/07/10 12:04:59;;;;;;;1780.97;981.28;;;;;;;;;;5204713;27;20381;-84
2021/07/10 12:07:28;;;;;;;1320.38;896.78;;;;;;;;;;5203053;27;20066;-84
2021/07/10 12:09:57;;;;;;;1170.97;844.28;;;;;;;;;;5204633;27;20065;-85
2021/07/10 12:12:25;;;;;;;1675.18;937.47;;;;;;;;;;5203590;27;20054;-84
2021/07/10 12:14:54;;;;;;;1355.22;887.25;;;;;;;;;;5203412;27;20018;-85
2021/07/10 12:17:24;;;;;;;1248.28;831.53;;;;;;;;;;5203421;27;20031;-84
2021/07/10 12:19:54;;;;;;;1580.68;941.55;;;;;;;;;;5200487;27;20037;-84
2021/07/10 12:22:23;;;;;;;1133.60;847.30;;;;;;;;;;5195486;27;20443;-84
2021/07/10 12:24:59;;;;;;;708.33;636.17;;;;;;;;;;5194675;27;20035;-85
2021/07/10 12:27:31;;;;;;;778.55;693.55;;;;;;;;;;5196976;27;20441;-85
2021/07/10 12:29:59;;;;;;;767.80;679.10;;;;;;;;;;5198309;27;20022;-83
2021/07/10 12:32:28;;;;;;;1128.60;796.85;;;;;;;;;;5205546;27;20023;-84
2021/07/10 12:34:57;;;;;;;676.87;603.10;;;;;;;;;;5202017;27;20111;-84
2021/07/10 12:37:27;;;;;;;1075.97;784.37;;;;;;;;;;5199842;27;20047;-85
2021/07/10 12:40:09;;;;;;;639.42;578.15;;;;;;;;;;5197650;27;20033;-84
2021/07/10 12:42:37;;;;;;;811.65;699.88;;;;;;;;;;5196075;27;20397;-84
2021/07/10 12:45:09;;;;;;;1034.60;798.37;;;;;;;;;;5200371;27;20441;-84
2021/07/10 12:47:38;;;;;;;1051.53;783.25;;;;;;;;;;5197372;27;20046;-85
2021/07/10 12:50:07;;;;;;;1082.57;764.55;;;;;;;;;;5197982;27;20085;-84
2021/07/10 12:52:50;;;;;;;628.92;552.28;;;;;;;;;;5200623;27;20401;-85
2021/07/10 12:55:37;;;;;;;725.08;622.40;;;;;;;;;;5196750;27;20055;-85
2021/07/10 12:58:06;;;;;;;439.58;399.15;;;;;;;;;;5198519;27;20720;-85
2021/07/10 13:00:35;;;;;;;948.60;739.55;;;;;;;;;;5198307;27;20050;-84
2021/07/10 13:03:11;;;;;;;497.58;457.52;;;;;;;;;;5203355;27;20048;-84
2021/07/10 13:05:41;;;;;;;1037.03;790.35;;;;;;;;;;5201088;27;20038;-84
2021/07/10 13:08:13;;;;;;;1039.63;810.97;;;;;;;;;;5202714;27;20018;-84
2021/07/10 13:10:45;;;;;;;1033.85;815.12;;;;;;;;;;5206001;27;20038;-84
2021/07/10 13:13:22;;;;;;;1264.35;859.80;;;;;;;;;;5198057;27;20068;-84
2021/07/10 13:16:08;;;;;;;1442.70;914.78;;;;;;;;;;5197640;27;20045;-85
2021/07/10 13:19:06;;;;;;;1270.43;839.17;;;;;;;;;;5200942;27;20019;-84
2021/07/10 13:21:36;;;;;;;1279.80;858.08;;;;;;;;;;5185032;27;20054;-85
2021/07/10 13:24:06;;;;;;;653.72;591.92;;;;;;;;;;5195670;27;20015;-84
2021/07/10 13:26:36;;;;;;;977.55;760.72;;;;;;;;;;5200658;27;20015;-84
2021/07/10 13:29:18;;;;;;;1314.32;871.95;;;;;;;;;;5195544;27;20110;-84
2021/07/10 13:32:02;;;;;;;818.90;711.33;;;;;;;;;;5195016;27;20081;-85
2021/07/10 13:34:33;;;;;;;1136.38;796.97;;;;;;;;;;5204671;27;20045;-84
2021/07/10 13:37:03;;;;;;;1098.97;771.10;;;;;;;;;;5200294;27;20038;-84
2021/07/10 13:39:33;;;;;;;1177.80;822.67;;;;;;;;;;5196238;27;20058;-84
2021/07/10 13:42:04;;;;;;;882.08;786.22;;;;;;;;;;5199996;27;20033;-84
2021/07/10 13:44:56;;;;;;;1112.05;827.42;;;;;;;;;;5204935;27;20036;-84
2021/07/10 13:47:24;;;;;;;894.55;752.97;;;;;;;;;;5205865;27;20039;-84
2021/07/10 13:49:57;;;;;;;855.83;762.10;;;;;;;;;;5202769;27;21531;-85
2021/07/10 13:52:29;;;;;;;1223.07;862.83;;;;;;;;;;5199491;27;20030;-84
2021/07/10 13:54:59;;;;;;;686.55;610.05;;;;;;;;;;5197212;27;20120;-85
2021/07/10 13:57:28;;;;;;;785.80;678.22;;;;;;;;;;5182760;27;20054;-84
2021/07/10 13:59:59;;;;;;;1213.00;866.92;;;;;;;;;;5198369;27;20055;-84
2021/07/10 14:02:30;;;;;;;605.83;547.92;;;;;;;;;;5201080;27;20027;-84
2021/07/10 14:05:01;;;;;;;795.78;683.05;;;;;;;;;;5206659;27;20022;-84
2021/07/10 14:07:30;;;;;;;1000.50;774.60;;;;;;;;;;5197394;27;20493;-84
2021/07/10 14:10:00;;;;;;;760.30;657.88;;;;;;;;;;5197417;27;20041;-85
2021/07/10 14:12:28;;;;;;;816.08;678.92;;;;;;;;;;5182417;27;20759;-84
2021/07/10 14:14:57;;;;;;;732.50;653.55;;;;;;;;;;5198368;27;20057;-84
2021/07/10 14:17:25;;;;;;;964.20;772.80;;;;;;;;;;5200155;27;20446;-84
2021/07/10 14:19:54;;;;;;;657.75;591.40;;;;;;;;;;5204016;27;20287;-84
2021/07/10 14:22:22;;;;;;;847.15;687.75;;;;;;;;;;5205128;27;20388;-84
2021/07/10 14:24:53;;;;;;;791.55;651.30;;;;;;;;;;5194576;27;20046;-85
2021/07/10 14:27:21;;;;;;;943.30;756.42;;;;;;;;;;5196670;27;20051;-84
2021/07/10 14:29:50;;;;;;;1066.93;762.15;;;;;;;;;;5197264;27;20114;-84
2021/07/10 14:32:30;;;;;;;581.13;527.00;;;;;;;;;;5197884;27;20238;-85
2021/07/10 14:34:59;;;;;;;712.50;642.55;;;;;;;;;;5196399;27;20026;-85
2021/07/10 14:37:27;;;;;;;592.55;539.42;;;;;;;;;;5201775;27;20054;-85
2021/07/10 14:39:57;;;;;;;795.30;713.00;;;;;;;;;;5203485;27;20330;-83
2021/07/10 14:42:25;;;;;;;958.20;750.72;;;;;;;;;;5200797;27;20042;-84
2021/07/10 14:44:53;;;;;;;1007.08;786.88;;;;;;;;;;5175140;27;20023;-84
2021/07/10 14:47:22;;;;;;;1145.95;854.03;;;;;;;;;;5195958;27;20505;-85
2021/07/10 14:49:50;;;;;;;1139.25;833.58;;;;;;;;;;5195797;27;20082;-85
2021/07/10 14:52:19;;;;;;;1050.95;838.58;;;;;;;;;;5195361;27;20019;-84
2021/07/10 14:54:48;;;;;;;1089.85;852.72;;;;;;;;;;5196546;27;20451;-85
2021/07/10 14:57:16;;;;;;;1043.82;818.72;;;;;;;;;;5198455;27;20094;-85
2021/07/10 14:59:45;;;;;;;1073.32;823.62;;;;;;;;;;5197406;27;20037;-85
2021/07/10 15:02:13;;;;;;;774.50;689.50;;;;;;;;;;5197301;27;20033;-84
2021/07/10 15:04:42;;;;;;;1670.60;988.70;;;;;;;;;;5195981;27;20058;-85
2021/07/10 15:07:11;;;;;;;1206.13;870.20;;;;;;;;;;5198350;27;20042;-85
2021/07/10 15:09:40;;;;;;;1297.90;894.63;;;;;;;;;;5200205;27;20101;-84
2021/07/10 15:12:09;;;;;;;1487.53;940.90;;;;;;;;;;5201171;27;20469;-85
2021/07/10 15:14:38;;;;;;;960.15;794.47;;;;;;;;;;5195512;27;20412;-85
2021/07/10 15:17:06;;;;;;;1175.55;861.92;;;;;;;;;;5203406;27;20068;-84
2021/07/10 15:19:35;;;;;;;1073.38;857.83;;;;;;;;;;5205727;27;20023;-84
2021/07/10 15:22:03;;;;;;;1287.55;923.78;;;;;;;;;;5202598;27;20478;-84
2021/07/10 15:24:32;;;;;;;882.80;771.92;;;;;;;;;;5197666;27;20061;-84
2021/07/10 15:27:00;;;;;;;1410.00;930.92;;;;;;;;;;5199541;27;20047;-84
2021/07/10 15:29:29;;;;;;;1323.45;915.65;;;;;;;;;;5200493;27;20088;-84
2021/07/10 15:31:58;;;;;;;1134.95;849.45;;;;;;;;;;5197973;27;20040;-84
2021/07/10 15:34:26;;;;;;;1155.15;865.53;;;;;;;;;;5198756;27;20060;-84
2021/07/10 15:36:55;;;;;;;1674.60;981.65;;;;;;;;;;5204131;27;20073;-84
2021/07/10 15:39:24;;;;;;;802.55;717.28;;;;;;;;;;5209340;27;20076;-83
2021/07/10 15:41:53;;;;;;;890.08;767.42;;;;;;;;;;5202891;27;20029;-85
2021/07/10 15:44:21;;;;;;;1293.05;894.35;;;;;;;;;;5204635;27;20106;-84
2021/07/10 15:46:50;;;;;;;1141.13;852.25;;;;;;;;;;5205211;27;20673;-84
2021/07/10 15:49:19;;;;;;;1743.93;998.47;;;;;;;;;;5199339;27;20084;-84
2021/07/10 15:51:49;;;;;;;1450.18;902.83;;;;;;;;;;5205423;27;20492;-85
2021/07/10 15:54:18;;;;;;;1124.43;833.35;;;;;;;;;;5199388;27;20038;-84
2021/07/10 15:56:47;;;;;;;1336.85;888.22;;;;;;;;;;5203822;27;20026;-84
2021/07/10 15:59:17;;;;;;;838.70;744.78;;;;;;;;;;5198525;27;20054;-84
2021/07/10 16:01:47;;;;;;;1557.15;926.78;;;;;;;;;;5199764;27;20093;-85
2021/07/10 16:04:17;;;;;;;1251.70;835.97;;;;;;;;;;5200313;27;20073;-84
2021/07/10 16:06:45;;;;;;;892.97;756.70;;;;;;;;;;5198284;27;20458;-85
2021/07/10 16:09:15;;;;;;;889.42;756.05;;;;;;;;;;5198447;27;20330;-83
2021/07/10 16:11:43;;;;;;;1063.80;833.83;;;;;;;;;;5200450;27;20078;-85
2021/07/10 16:14:12;;;;;;;1632.82;959.62;;;;;;;;;;5201248;27;20026;-84
2021/07/10 16:16:40;;;;;;;1681.88;976.20;;;;;;;;;;5201500;27;20103;-85
2021/07/10 16:19:09;;;;;;;1528.57;923.03;;;;;;;;;;5201246;27;20074;-84
2021/07/10 16:21:37;;;;;;;1820.07;981.65;;;;;;;;;;5201251;27;20246;-84
2021/07/10 16:24:06;;;;;;;1107.55;815.35;;;;;;;;;;5199860;27;20049;-84
2021/07/10 16:26:35;;;;;;;1305.05;899.65;;;;;;;;;;5202478;27;20382;-85
2021/07/10 16:29:04;;;;;;;1532.82;908.50;;;;;;;;;;5198568;27;20038;-85
2021/07/10 16:31:32;;;;;;;1325.18;879.90;;;;;;;;;;5200881;27;20039;-84
2021/07/10 16:34:02;;;;;;;1151.22;848.85;;;;;;;;;;5200775;27;20032;-84
2021/07/10 16:36:31;;;;;;;1578.88;945.53;;;;;;;;;;5200776;27;20006;-84
2021/07/10 16:39:00;;;;;;;1024.15;797.40;;;;;;;;;;5201467;27;20081;-85
2021/07/10 16:41:29;;;;;;;1234.47;839.60;;;;;;;;;;5201260;27;20027;-84
2021/07/10 16:43:57;;;;;;;1403.68;909.92;;;;;;;;;;5200483;27;20037;-84
2021/07/10 16:46:26;;;;;;;840.97;738.15;;;;;;;;;;5201921;27;20339;-84
2021/07/10 16:48:54;;;;;;;1300.13;887.55;;;;;;;;;;5200421;27;20050;-85
2021/07/10 16:51:23;;;;;;;686.08;625.30;;;;;;;;;;5180791;27;20691;-85
2021/07/10 16:53:52;;;;;;;1008.33;777.90;;;;;;;;;;5202509;27;20084;-84
2021/07/10 16:56:21;;;;;;;758.17;689.35;;;;;;;;;;5198352;27;20237;-84
2021/07/10 16:58:49;;;;;;;693.00;632.03;;;;;;;;;;5200137;27;20019;-84
2021/07/10 17:01:18;;;;;;;739.13;670.67;;;;;;;;;;5200998;27;20046;-85
2021/07/10 17:03:47;;;;;;;925.28;761.95;;;;;;;;;;5200728;27;20550;-84
2021/07/10 17:06:16;;;;;;;794.33;717.47;;;;;;;;;;5199744;27;20046;-83
2021/07/10 17:08:44;;;;;;;752.42;680.70;;;;;;;;;;5200426;27;20747;-84
2021/07/10 17:11:13;;;;;;;786.88;720.12;;;;;;;;;;5196796;27;20385;-84
2021/07/10 17:13:41;;;;;;;856.30;775.70;;;;;;;;;;5198941;27;20023;-84
2021/07/10 17:16:10;;;;;;;924.13;821.55;;;;;;;;;;5198832;27;20037;-84
2021/07/10 17:18:39;;;;;;;1079.97;854.72;;;;;;;;;;5199568;27;20398;-84
2021/07/10 17:21:07;;;;;;;792.78;725.58;;;;;;;;;;5199034;27;20057;-84
2021/07/10 17:23:36;;;;;;;1173.47;885.03;;;;;;;;;;5199164;27;20064;-84
2021/07/10 17:26:05;;;;;;;883.85;790.28;;;;;;;;;;5199829;27;20031;-83
2021/07/10 17:28:33;;;;;;;950.20;847.33;;;;;;;;;;5181836;27;20349;-84
2021/07/10 17:31:07;;;;;;;808.65;737.35;;;;;;;;;;5200329;27;20047;-84
2021/07/10 17:33:36;;;;;;;1145.55;876.67;;;;;;;;;;5199376;27;20988;-84
2021/07/10 17:36:05;;;;;;;858.65;781.85;;;;;;;;;;5199840;27;20304;-85
2021/07/10 17:38:33;;;;;;;956.17;843.60;;;;;;;;;;5199107;27;20418;-84
2021/07/10 17:41:02;;;;;;;807.78;736.30;;;;;;;;;;5199386;27;20097;-84
2021/07/10 17:43:31;;;;;;;720.33;661.47;;;;;;;;;;5199935;27;20053;-84
2021/07/10 17:45:59;;;;;;;916.10;814.03;;;;;;;;;;5178859;27;20493;-84
2021/07/10 17:48:29;;;;;;;957.10;813.17;;;;;;;;;;5199085;27;20064;-84
2021/07/10 17:50:57;;;;;;;1426.18;953.05;;;;;;;;;;5199479;27;20086;-84
2021/07/10 17:53:26;;;;;;;861.97;768.30;;;;;;;;;;5205316;27;20015;-84
2021/07/10 17:55:54;;;;;;;828.50;745.53;;;;;;;;;;5205366;27;20034;-84
2021/07/10 17:58:23;;;;;;;943.50;827.17;;;;;;;;;;5205277;27;20048;-84
2021/07/10 18:00:51;;;;;;;808.40;738.60;;;;;;;;;;5203361;27;20026;-84
2021/07/10 18:03:20;;;;;;;932.17;840.65;;;;;;;;;;5202891;27;20479;-83
2021/07/10 18:05:48;;;;;;;1522.45;985.10;;;;;;;;;;5207731;27;20571;-84
2021/07/10 18:08:17;;;;;;;877.67;802.15;;;;;;;;;;5202908;27;21186;-84
2021/07/10 18:10:46;;;;;;;957.75;866.30;;;;;;;;;;5203103;27;20019;-84
2021/07/10 18:13:14;;;;;;;1315.65;928.33;;;;;;;;;;5203801;27;20097;-83
2021/07/10 18:15:43;;;;;;;930.28;839.42;;;;;;;;;;5206145;27;20015;-83
2021/07/10 18:18:12;;;;;;;1325.50;932.10;;;;;;;;;;5203840;27;20585;-83
2021/07/10 18:20:40;;;;;;;977.97;874.65;;;;;;;;;;5202824;27;20031;-83
2021/07/10 18:23:09;;;;;;;995.58;902.58;;;;;;;;;;5204907;27;20630;-84
2021/07/10 18:25:40;;;;;;;906.12;820.60;;;;;;;;;;5205360;27;20033;-83
2021/07/10 18:28:09;;;;;;;1461.10;940.80;;;;;;;;;;5206717;27;20154;-84
2021/07/10 18:30:38;;;;;;;951.58;831.80;;;;;;;;;;5207182;27;20054;-83
2021/07/10 18:33:06;;;;;;;699.60;635.22;;;;;;;;;;5205242;27;20065;-83
2021/07/10 18:35:35;;;;;;;838.47;725.80;;;;;;;;;;5206548;27;20056;-84
2021/07/10 18:38:05;;;;;;;847.35;755.15;;;;;;;;;;5205834;27;20042;-83
2021/07/10 18:40:34;;;;;;;745.47;683.38;;;;;;;;;;5205403;27;20028;-84
2021/07/10 18:43:03;;;;;;;549.22;505.35;;;;;;;;;;5201113;27;20585;-84
2021/07/10 18:45:33;;;;;;;1005.45;829.70;;;;;;;;;;5200454;27;20084;-82
2021/07/10 18:48:01;;;;;;;758.42;690.33;;;;;;;;;;5201070;27;20069;-83
2021/07/10 18:50:33;;;;;;;684.03;622.28;;;;;;;;;;5199731;27;20593;-84
2021/07/10 18:53:04;;;;;;;768.83;693.60;;;;;;;;;;5202275;27;20054;-84
2021/07/10 18:55:32;;;;;;;724.33;653.60;;;;;;;;;;5181954;27;20101;-84
2021/07/10 18:58:02;;;;;;;1562.38;920.70;;;;;;;;;;5201372;27;20094;-84
2021/07/10 19:00:30;;;;;;;788.30;715.35;;;;;;;;;;5200171;27;20023;-83
2021/07/10 19:02:58;;;;;;;780.08;706.72;;;;;;;;;;5201355;27;20080;-83
2021/07/10 19:05:27;;;;;;;832.10;746.03;;;;;;;;;;5201211;27;20058;-84
2021/07/10 19:07:56;;;;;;;636.33;584.25;;;;;;;;;;5201768;27;20025;-83
2021/07/10 19:10:25;;;;;;;865.42;779.85;;;;;;;;;;5201783;27;20042;-83
2021/07/10 19:12:54;;;;;;;908.03;814.87;;;;;;;;;;5202464;27;20512;-84
2021/07/10 19:15:23;;;;;;;822.22;747.92;;;;;;;;;;5200860;27;20039;-83
2021/07/10 19:17:52;;;;;;;769.92;701.78;;;;;;;;;;5202380;27;20057;-84
2021/07/10 19:20:22;;;;;;;827.67;752.97;;;;;;;;;;5201843;27;20041;-83
2021/07/10 19:22:51;;;;;;;876.28;786.50;;;;;;;;;;5201648;27;20428;-84
2021/07/10 19:25:23;;;;;;;746.58;680.20;;;;;;;;;;5203112;27;20039;-83
2021/07/10 19:27:52;;;;;;;766.78;689.17;;;;;;;;;;5207156;27;20053;-83
2021/07/10 19:30:23;;;;;;;916.45;793.08;;;;;;;;;;5209830;27;20029;-83
2021/07/10 19:32:53;;;;;;;689.03;632.05;;;;;;;;;;5208588;27;20084;-84
2021/07/10 19:35:23;;;;;;;578.60;533.95;;;;;;;;;;5205530;27;20061;-83
2021/07/10 19:37:52;;;;;;;728.58;665.65;;;;;;;;;;5205097;27;20460;-84
2021/07/10 19:40:20;;;;;;;669.90;615.20;;;;;;;;;;5208807;27;20022;-83
2021/07/10 19:42:49;;;;;;;741.72;677.22;;;;;;;;;;5204496;27;20405;-83
2021/07/10 19:45:18;;;;;;;940.38;778.67;;;;;;;;;;5208249;27;20377;-83
2021/07/10 19:47:47;;;;;;;848.20;762.80;;;;;;;;;;5208827;27;20053;-84
2021/07/10 19:50:18;;;;;;;633.55;580.15;;;;;;;;;;5210041;27;20074;-83
2021/07/10 19:52:46;;;;;;;708.90;650.00;;;;;;;;;;5206188;27;20026;-83
2021/07/10 19:55:15;;;;;;;686.88;628.78;;;;;;;;;;5208945;27;20052;-84
2021/07/10 19:57:45;;;;;;;723.88;657.12;;;;;;;;;;5204515;27;20052;-83
2021/07/10 20:00:24;;;;;;;526.08;485.02;;;;;;;;;;5205187;27;20065;-83
2021/07/10 20:02:57;;;;;;;572.70;522.58;;;;;;;;;;5208049;27;20031;-83
2021/07/10 20:05:25;;;;;;;783.92;698.95;;;;;;;;;;5207971;27;20011;-84
2021/07/10 20:07:54;;;;;;;502.23;464.90;;;;;;;;;;5207156;27;20026;-83
2021/07/10 20:10:24;;;;;;;779.50;690.92;;;;;;;;;;5210420;27;20019;-83
2021/07/10 20:12:53;;;;;;;748.90;656.78;;;;;;;;;;5211080;27;20018;-84
2021/07/10 20:15:22;;;;;;;646.90;585.35;;;;;;;;;;5208168;27;20035;-84
2021/07/10 20:17:51;;;;;;;527.65;486.38;;;;;;;;;;5208203;27;20038;-83
2021/07/10 20:20:19;;;;;;;693.10;621.87;;;;;;;;;;5210180;27;20053;-83
2021/07/10 20:22:48;;;;;;;1194.80;852.80;;;;;;;;;;5189282;27;20355;-83
2021/07/10 20:25:17;;;;;;;814.83;716.40;;;;;;;;;;5207864;27;20041;-82
2021/07/10 20:27:45;;;;;;;694.03;620.45;;;;;;;;;;5207042;27;20023;-87
2021/07/10 20:30:14;;;;;;;1302.97;920.35;;;;;;;;;;5210216;27;20023;-87
2021/07/10 20:32:43;;;;;;;553.28;502.48;;;;;;;;;;5209550;27;20029;-88
2021/07/10 20:35:12;;;;;;;676.75;604.22;;;;;;;;;;5206888;27;20019;-87
2021/07/10 20:37:42;;;;;;;672.90;605.20;;;;;;;;;;5206801;27;20034;-87